PUD: include nmealib v0.6.7
[olsrd.git] / lib / pud / nmealib / samples / parse_file / gpslog.txt
1 $PSRFTXTVersion GSW3.2.1PAT_3.1.00.12-SDK001P1.00c *3F\r
2 $PSRFTXTHTC GPS_ART_321000_GEN*20\r
3 $PSRFTXTTOW:  258712*32\r
4 $PSRFTXTWK:   1412*4F\r
5 $PSRFTXTPOS:  1518885 -4470072 4274168*24\r
6 $PSRFTXTCLK:  94817*02\r
7 $PSRFTXTCHNL: 12*5F\r
8 $PSRFTXTBaud rate: 57600 *51\r
9 $GPGGA,213638.949,,,,,0,00,,,M,0.0,M,,0000*5F\r
10 $GPGSA,A,1,,,,,,,,,,,,,,,*1E\r
11 $GPRMC,213638.949,V,,,,,,,010207,,,N*40\r
12 $GPGGA,213639.897,,,,,0,00,,,M,0.0,M,,0000*5C\r
13 $GPGSA,A,1,,,,,,,,,,,,,,,*1E\r
14 $GPRMC,213639.897,V,,,,,,,010207,,,N*43\r
15 $GPGGA,213640.886,,,,,0,00,,,M,0.0,M,,0000*52\r
16 $GPGSA,A,1,,,,,,,,,,,,,,,*1E\r
17 $GPRMC,213640.886,V,,,,,,,010207,,,N*4D\r
18 $GPGGA,213641.886,,,,,0,00,,,M,0.0,M,,0000*53\r
19 $GPGSA,A,1,,,,,,,,,,,,,,,*1E\r
20 $GPRMC,213641.886,V,,,,,,,010207,,,N*4C\r
21 $GPGGA,213642.897,,,,,0,00,,,M,0.0,M,,0000*50\r
22 $GPGSA,A,1,,,,,,,,,,,,,,,*1E\r
23 $GPGSV,3,1,12,20,00,000,,10,00,000,,25,00,000,,27,00,000,*79\r
24 $GPGSV,3,2,12,22,00,000,,07,00,000,,21,00,000,,24,00,000,*79\r
25 $GPGSV,3,3,12,16,00,000,,28,00,000,,26,00,000,,29,00,000,*78\r
26 $GPRMC,213642.897,V,,,,,,,010207,,,N*4F\r
27 $GPGGA,213643.886,,,,,0,00,,,M,0.0,M,,0000*51\r
28 $GPGSA,A,1,,,,,,,,,,,,,,,*1E\r
29 $GPRMC,213643.886,V,,,,,,,010207,,,N*4E\r
30 $GPGGA,213644.886,,,,,0,00,,,M,0.0,M,,0000*56\r
31 $GPGSA,A,1,,,,,,,,,,,,,,,*1E\r
32 $GPRMC,213644.886,V,,,,,,,010207,,,N*49\r
33 $GPGGA,213645.897,,,,,0,00,,,M,0.0,M,,0000*57\r
34 $GPGSA,A,1,,,,,,,,,,,,,,,*1E\r
35 $GPRMC,213645.897,V,,,,,,,010207,,,N*48\r
36 $GPGGA,213646.886,,,,,0,00,,,M,0.0,M,,0000*54\r
37 $GPGSA,A,1,,,,,,,,,,,,,,,*1E\r
38 $GPRMC,213646.886,V,,,,,,,010207,,,N*4B\r
39 $GPGGA,213647.886,,,,,0,00,,,M,0.0,M,,0000*55\r
40 $GPGSA,A,1,,,,,,,,,,,,,,,*1E\r
41 $GPGSV,3,1,12,20,00,000,,10,00,000,,25,00,000,,27,00,000,*79\r
42 $GPGSV,3,2,12,22,00,000,,07,00,000,,21,00,000,,24,00,000,*79\r
43 $GPGSV,3,3,12,16,00,000,,28,00,000,,26,00,000,,29,00,000,*78\r
44 $GPRMC,213647.886,V,,,,,,,010207,,,N*4A\r
45 $GPGGA,213648.897,,,,,0,00,,,M,0.0,M,,0000*5A\r
46 $GPGSA,A,1,,,,,,,,,,,,,,,*1E\r
47 $GPRMC,213648.897,V,,,,,,,010207,,,N*45\r
48 $GPGGA,213649.886,,,,,0,00,,,M,0.0,M,,0000*5B\r
49 $GPGSA,A,1,,,,,,,,,,,,,,,*1E\r
50 $GPRMC,213649.886,V,,,,,,,010207,,,N*44\r
51 $GPGGA,213650.886,,,,,0,00,,,M,0.0,M,,0000*53\r
52 $GPGSA,A,1,,,,,,,,,,,,,,,*1E\r
53 $GPRMC,213650.886,V,,,,,,,010207,,,N*4C\r
54 $GPGGA,213651.897,,,,,0,00,,,M,0.0,M,,0000*52\r
55 $GPGSA,A,1,,,,,,,,,,,,,,,*1E\r
56 $GPRMC,213651.897,V,,,,,,,010207,,,N*4D\r
57 $GPGGA,213652.886,,,,,0,00,,,M,0.0,M,,0000*51\r
58 $GPGSA,A,1,,,,,,,,,,,,,,,*1E\r
59 $GPGSV,3,1,12,20,00,000,,10,00,000,,25,00,000,,27,00,000,*79\r
60 $GPGSV,3,2,12,22,00,000,,07,00,000,,21,00,000,,24,00,000,*79\r
61 $GPGSV,3,3,12,16,00,000,,28,00,000,,26,00,000,,29,00,000,*78\r
62 $GPRMC,213652.886,V,,,,,,,010207,,,N*4E\r
63 $GPGGA,213653.886,,,,,0,00,,,M,0.0,M,,0000*50\r
64 $GPGSA,A,1,,,,,,,,,,,,,,,*1E\r
65 $GPRMC,213653.886,V,,,,,,,010207,,,N*4F\r
66 $GPGGA,213654.898,,,,,0,00,,,M,0.0,M,,0000*58\r
67 $GPGSA,A,1,,,,,,,,,,,,,,,*1E\r
68 $GPRMC,213654.898,V,,,,,,,010207,,,N*47\r
69 $GPGGA,213655.886,,,,,0,00,,,M,0.0,M,,0000*56\r
70 $GPGSA,A,1,,,,,,,,,,,,,,,*1E\r
71 $GPRMC,213655.886,V,,,,,,,010207,,,N*49\r
72 $GPGGA,213656.886,,,,,0,00,,,M,0.0,M,,0000*55\r
73 $GPGSA,A,1,,,,,,,,,,,,,,,*1E\r
74 $GPRMC,213656.886,V,,,,,,,010207,,,N*4A\r
75 $GPGGA,213657.897,,,,,0,00,,,M,0.0,M,,0000*54\r
76 $GPGSA,A,1,,,,,,,,,,,,,,,*1E\r
77 $GPGSV,3,1,12,20,00,000,,10,00,000,,25,00,000,,27,00,000,*79\r
78 $GPGSV,3,2,12,22,00,000,,07,00,000,,21,00,000,,24,00,000,*79\r
79 $GPGSV,3,3,12,16,00,000,,28,00,000,,26,00,000,,29,00,000,*78\r
80 $GPRMC,213657.897,V,,,,,,,010207,,,N*4B\r
81 $GPGGA,213658.886,,,,,0,00,,,M,0.0,M,,0000*5B\r
82 $GPGSA,A,1,,,,,,,,,,,,,,,*1E\r
83 $GPRMC,213658.886,V,,,,,,,010207,,,N*44\r
84 $GPGGA,213659.886,,,,,0,00,,,M,0.0,M,,0000*5A\r
85 $GPGSA,A,1,,,,,,,,,,,,,,,*1E\r
86 $GPRMC,213659.886,V,,,,,,,010207,,,N*45\r
87 $GPGGA,213700.880,,,,,0,00,,,M,0.0,M,,0000*51\r
88 $GPGSA,A,1,,,,,,,,,,,,,,,*1E\r
89 $GPRMC,213700.880,V,,,,,,,010207,,,N*4E\r
90 $GPGGA,213701.880,,,,,0,00,,,M,0.0,M,,0000*50\r
91 $GPGSA,A,1,,,,,,,,,,,,,,,*1E\r
92 $GPRMC,213701.880,V,,,,,,,010207,,,N*4F\r
93 $GPGGA,213702.880,,,,,0,00,,,M,0.0,M,,0000*53\r
94 $GPGSA,A,1,,,,,,,,,,,,,,,*1E\r
95 $GPGSV,3,1,10,24,83,052,,29,63,170,,26,55,179,,10,46,055,*70\r
96 $GPGSV,3,2,10,06,41,282,,02,23,120,,21,21,303,,08,16,068,*73\r
97 $GPGSV,3,3,10,27,10,042,,18,08,257,*7B\r
98 $GPRMC,213702.880,V,,,,,,,010207,,,N*4C\r
99 $GPGGA,213703.880,,,,,0,00,,,M,0.0,M,,0000*52\r
100 $GPGSA,A,1,,,,,,,,,,,,,,,*1E\r
101 $GPRMC,213703.880,V,,,,,,,010207,,,N*4D\r
102 $GPGGA,213704.880,,,,,0,00,,,M,0.0,M,,0000*55\r
103 $GPGSA,A,1,,,,,,,,,,,,,,,*1E\r
104 $GPRMC,213704.880,V,,,,,,,010207,,,N*4A\r
105 $GPGGA,213705.879,,,,,0,00,,,M,0.0,M,,0000*52\r
106 $GPGSA,A,1,,,,,,,,,,,,,,,*1E\r
107 $GPRMC,213705.879,V,,,,,,,010207,,,N*4D\r
108 $GPGGA,213706.879,,,,,0,00,,,M,0.0,M,,0000*51\r
109 $GPGSA,A,1,,,,,,,,,,,,,,,*1E\r
110 $GPRMC,213706.879,V,,,,,,,010207,,,N*4E\r
111 $GPGGA,213707.879,,,,,0,00,,,M,0.0,M,,0000*50\r
112 $GPGSA,A,1,,,,,,,,,,,,,,,*1E\r
113 $GPGSV,3,1,10,24,83,052,,29,63,170,,26,55,179,,10,46,055,*70\r
114 $GPGSV,3,2,10,06,41,282,,02,23,120,,21,21,303,,08,16,068,*73\r
115 $GPGSV,3,3,10,27,10,042,,18,08,257,*7B\r
116 $GPRMC,213707.879,V,,,,,,,010207,,,N*4F\r
117 $GPGGA,213708.879,,,,,0,00,,,M,0.0,M,,0000*5F\r
118 $GPGSA,A,1,,,,,,,,,,,,,,,*1E\r
119 $GPRMC,213708.879,V,,,,,,,010207,,,N*40\r
120 $GPGGA,213709.879,,,,,0,00,,,M,0.0,M,,0000*5E\r
121 $GPGSA,A,1,,,,,,,,,,,,,,,*1E\r
122 $GPRMC,213709.879,V,,,,,,,010207,,,N*41\r
123 $GPGGA,213710.879,,,,,0,00,,,M,0.0,M,,0000*56\r
124 $GPGSA,A,1,,,,,,,,,,,,,,,*1E\r
125 $GPRMC,213710.879,V,,,,,,,010207,,,N*49\r
126 $GPGGA,213711.879,,,,,0,00,,,M,0.0,M,,0000*57\r
127 $GPGSA,A,1,,,,,,,,,,,,,,,*1E\r
128 $GPRMC,213711.879,V,,,,,,,010207,,,N*48\r
129 $GPGGA,213712.879,,,,,0,00,,,M,0.0,M,,0000*54\r
130 $GPGSA,A,1,,,,,,,,,,,,,,,*1E\r
131 $GPGSV,3,1,10,24,83,052,,29,63,170,,26,55,179,,10,46,055,*70\r
132 $GPGSV,3,2,10,06,41,282,,02,23,120,,21,21,303,,08,16,068,*73\r
133 $GPGSV,3,3,10,27,10,042,,18,08,257,*7B\r
134 $GPRMC,213712.879,V,,,,,,,010207,,,N*4B\r
135 $GPGGA,213713.879,,,,,0,00,,,M,0.0,M,,0000*55\r
136 $GPGSA,A,1,,,,,,,,,,,,,,,*1E\r
137 $GPRMC,213713.879,V,,,,,,,010207,,,N*4A\r
138 $GPGGA,213714.879,,,,,0,00,,,M,0.0,M,,0000*52\r
139 $GPGSA,A,1,,,,,,,,,,,,,,,*1E\r
140 $GPRMC,213714.879,V,,,,,,,010207,,,N*4D\r
141 $GPGGA,213715.879,,,,,0,00,,,M,0.0,M,,0000*53\r
142 $GPGSA,A,1,,,,,,,,,,,,,,,*1E\r
143 $GPRMC,213715.879,V,,,,,,,010207,,,N*4C\r
144 $GPGGA,213716.879,,,,,0,00,,,M,0.0,M,,0000*50\r
145 $GPGSA,A,1,,,,,,,,,,,,,,,*1E\r
146 $GPRMC,213716.879,V,,,,,,,010207,,,N*4F\r
147 $GPGGA,213717.879,,,,,0,00,,,M,0.0,M,,0000*51\r
148 $GPGSA,A,1,,,,,,,,,,,,,,,*1E\r
149 $GPGSV,3,1,10,24,83,052,,29,63,170,,26,55,179,25,10,46,055,*77\r
150 $GPGSV,3,2,10,06,41,282,35,02,23,120,,21,21,303,,08,16,068,*75\r
151 $GPGSV,3,3,10,27,10,042,,18,08,257,*7B\r
152 $GPRMC,213717.879,V,,,,,,,010207,,,N*4E\r
153 $GPGGA,213718.879,,,,,0,00,,,M,0.0,M,,0000*5E\r
154 $GPGSA,A,1,,,,,,,,,,,,,,,*1E\r
155 $GPRMC,213718.879,V,,,,,,,010207,,,N*41\r
156 $GPGGA,213719.879,,,,,0,00,,,M,0.0,M,,0000*5F\r
157 $GPGSA,A,1,,,,,,,,,,,,,,,*1E\r
158 $GPRMC,213719.879,V,,,,,,,010207,,,N*40\r
159 $GPGGA,213720.879,,,,,0,00,,,M,0.0,M,,0000*55\r
160 $GPGSA,A,1,,,,,,,,,,,,,,,*1E\r
161 $GPRMC,213720.879,V,,,,,,,010207,,,N*4A\r
162 $GPGGA,213721.879,,,,,0,00,,,M,0.0,M,,0000*54\r
163 $GPGSA,A,1,,,,,,,,,,,,,,,*1E\r
164 $GPRMC,213721.879,V,,,,,,,010207,,,N*4B\r
165 $GPGGA,213722.879,,,,,0,00,,,M,0.0,M,,0000*57\r
166 $GPGSA,A,1,,,,,,,,,,,,,,,*1E\r
167 $GPGSV,3,1,10,24,83,052,,29,63,170,,26,55,179,31,10,46,055,*72\r
168 $GPGSV,3,2,10,06,41,282,34,02,23,120,,21,21,303,,08,16,068,*74\r
169 $GPGSV,3,3,10,27,10,042,,18,08,257,*7B\r
170 $GPRMC,213722.879,V,,,,,,,010207,,,N*48\r
171 $GPGGA,213723.990,,,,,0,00,,,M,0.0,M,,0000*50\r
172 $GPGSA,A,1,,,,,,,,,,,,,,,*1E\r
173 $GPRMC,213723.990,V,,,,,,,010207,,,N*4F\r
174 $GPGGA,213724.990,,,,,0,00,,,M,0.0,M,,0000*57\r
175 $GPGSA,A,1,,,,,,,,,,,,,,,*1E\r
176 $GPRMC,213724.990,V,,,,,,,010207,,,N*48\r
177 $GPGGA,213725.990,,,,,0,00,,,M,0.0,M,,0000*56\r
178 $GPGSA,A,1,,,,,,,,,,,,,,,*1E\r
179 $GPRMC,213725.990,V,,,,,,,010207,,,N*49\r
180 $GPGGA,213726.990,,,,,0,00,,,M,0.0,M,,0000*55\r
181 $GPGSA,A,1,,,,,,,,,,,,,,,*1E\r
182 $GPRMC,213726.990,V,,,,,,,010207,,,N*4A\r
183 $GPGGA,213727.990,,,,,0,00,,,M,0.0,M,,0000*54\r
184 $GPGSA,A,1,,,,,,,,,,,,,,,*1E\r
185 $GPGSV,3,1,10,24,83,052,,29,63,170,,26,55,179,30,10,46,055,*73\r
186 $GPGSV,3,2,10,06,41,282,34,02,23,120,,21,21,303,,08,16,068,*74\r
187 $GPGSV,3,3,10,27,10,042,,18,08,257,*7B\r
188 $GPRMC,213727.990,V,,,,,,,010207,,,N*4B\r
189 $GPGGA,213728.990,,,,,0,00,,,M,0.0,M,,0000*5B\r
190 $GPGSA,A,1,,,,,,,,,,,,,,,*1E\r
191 $GPRMC,213728.990,V,,,,,,,010207,,,N*44\r
192 $GPGGA,213729.990,,,,,0,00,,,M,0.0,M,,0000*5A\r
193 $GPGSA,A,1,,,,,,,,,,,,,,,*1E\r
194 $GPRMC,213729.990,V,,,,,,,010207,,,N*45\r
195 $GPGGA,213730.990,,,,,0,00,,,M,0.0,M,,0000*52\r
196 $GPGSA,A,1,,,,,,,,,,,,,,,*1E\r
197 $GPRMC,213730.990,V,,,,,,,010207,,,N*4D\r
198 $GPGGA,213731.990,,,,,0,00,,,M,0.0,M,,0000*53\r
199 $GPGSA,A,1,,,,,,,,,,,,,,,*1E\r
200 $GPRMC,213731.990,V,,,,,,,010207,,,N*4C\r
201 $GPGGA,213732.990,,,,,0,00,,,M,0.0,M,,0000*50\r
202 $GPGSA,A,1,,,,,,,,,,,,,,,*1E\r
203 $GPGSV,3,1,10,24,83,052,,29,63,170,,26,55,179,27,10,46,055,*75\r
204 $GPGSV,3,2,10,06,41,282,35,02,23,120,,21,21,303,,08,16,068,*75\r
205 $GPGSV,3,3,10,27,10,042,,18,08,257,*7B\r
206 $GPRMC,213732.990,V,,,,,,,010207,,,N*4F\r
207 $GPGGA,213733.990,,,,,0,00,,,M,0.0,M,,0000*51\r
208 $GPGSA,A,1,,,,,,,,,,,,,,,*1E\r
209 $GPRMC,213733.990,V,,,,,,,010207,,,N*4E\r
210 $GPGGA,213734.990,,,,,0,00,,,M,0.0,M,,0000*56\r
211 $GPGSA,A,1,,,,,,,,,,,,,,,*1E\r
212 $GPRMC,213734.990,V,,,,,,,010207,,,N*49\r
213 $GPGGA,213735.990,,,,,0,00,,,M,0.0,M,,0000*57\r
214 $GPGSA,A,1,,,,,,,,,,,,,,,*1E\r
215 $GPRMC,213735.990,V,,,,,,,010207,,,N*48\r
216 $GPGGA,213736.990,,,,,0,00,,,M,0.0,M,,0000*54\r
217 $GPGSA,A,1,,,,,,,,,,,,,,,*1E\r
218 $GPRMC,213736.990,V,,,,,,,010207,,,N*4B\r
219 $GPGGA,213737.990,,,,,0,00,,,M,0.0,M,,0000*55\r
220 $GPGSA,A,1,,,,,,,,,,,,,,,*1E\r
221 $GPGSV,3,1,10,24,83,052,,29,63,170,,26,55,179,28,10,46,055,*7A\r
222 $GPGSV,3,2,10,06,41,282,34,02,23,120,,21,21,303,,08,16,068,*74\r
223 $GPGSV,3,3,10,27,10,042,,18,08,257,*7B\r
224 $GPRMC,213737.990,V,,,,,,,010207,,,N*4A\r
225 $GPGGA,213738.990,,,,,0,00,,,M,0.0,M,,0000*5A\r
226 $GPGSA,A,1,,,,,,,,,,,,,,,*1E\r
227 $GPRMC,213738.990,V,,,,,,,010207,,,N*45\r
228 $GPGGA,213739.990,,,,,0,00,,,M,0.0,M,,0000*5B\r
229 $GPGSA,A,1,,,,,,,,,,,,,,,*1E\r
230 $GPRMC,213739.990,V,,,,,,,010207,,,N*44\r
231 $GPGGA,213740.990,,,,,0,00,,,M,0.0,M,,0000*55\r
232 $GPGSA,A,1,,,,,,,,,,,,,,,*1E\r
233 $GPRMC,213740.990,V,,,,,,,010207,,,N*4A\r
234 $GPGGA,213741.990,,,,,0,00,,,M,0.0,M,,0000*54\r
235 $GPGSA,A,1,,,,,,,,,,,,,,,*1E\r
236 $GPRMC,213741.990,V,,,,,,,010207,,,N*4B\r
237 $GPGGA,213742.990,,,,,0,00,,,M,0.0,M,,0000*57\r
238 $GPGSA,A,1,,,,,,,,,,,,,,,*1E\r
239 $GPGSV,3,1,10,24,83,052,,29,63,170,,26,55,179,28,10,46,055,*7A\r
240 $GPGSV,3,2,10,06,41,282,34,02,23,120,,21,21,303,,08,16,068,*74\r
241 $GPGSV,3,3,10,27,10,042,,18,08,257,*7B\r
242 $GPRMC,213742.990,V,,,,,,,010207,,,N*48\r
243 $GPGGA,213743.990,,,,,0,00,,,M,0.0,M,,0000*56\r
244 $GPGSA,A,1,,,,,,,,,,,,,,,*1E\r
245 $GPRMC,213743.990,V,,,,,,,010207,,,N*49\r
246 $GPGGA,213744.990,,,,,0,00,,,M,0.0,M,,0000*51\r
247 $GPGSA,A,1,,,,,,,,,,,,,,,*1E\r
248 $GPRMC,213744.990,V,,,,,,,010207,,,N*4E\r
249 $GPGGA,213745.990,,,,,0,00,,,M,0.0,M,,0000*50\r
250 $GPGSA,A,1,,,,,,,,,,,,,,,*1E\r
251 $GPRMC,213745.990,V,,,,,,,010207,,,N*4F\r
252 $GPGGA,213746.990,,,,,0,00,,,M,0.0,M,,0000*53\r
253 $PSRFTXTVersion GSW3.2.1PAT_3.1.00.12-SDK001P1.00c *3F\r
254 $PSRFTXTHTC GPS_ART_321000_GEN*20\r
255 $PSRFTXTTOW:  423546*3B\r
256 $PSRFTXTWK:   1412*4F\r
257 $PSRFTXTPOS:  1533096 -4464909 4274442*2A\r
258 $PSRFTXTCLK:  94810*05\r
259 $PSRFTXTCHNL: 12*5F\r
260 $PSRFTXTBaud rate: 57600 *51\r
261 $GPGGA,213912.270,,,,,0,00,,,M,0.0,M,,0000*59\r
262 $GPGSA,A,1,,,,,,,,,,,,,,,*1E\r
263 $GPRMC,213912.270,V,,,,,,,010207,,,N*46\r
264 $GPGGA,213913.211,,,,,0,00,,,M,0.0,M,,0000*5F\r
265 $GPGSA,A,1,,,,,,,,,,,,,,,*1E\r
266 $GPRMC,213913.211,V,,,,,,,010207,,,N*40\r
267 $GPGGA,213914.200,,,,,0,00,,,M,0.0,M,,0000*58\r
268 $GPGSA,A,1,,,,,,,,,,,,,,,*1E\r
269 $GPRMC,213914.200,V,,,,,,,010207,,,N*47\r
270 $GPGGA,213915.196,,,,,0,00,,,M,0.0,M,,0000*55\r
271 $GPGSA,A,1,,,,,,,,,,,,,,,*1E\r
272 $GPRMC,213915.196,V,,,,,,,010207,,,N*4A\r
273 $GPGGA,213916.199,4221.0377,N,07102.9778,W,1,03,13.4,-32.4,M,-33.7,M,,0000*45\r
274 $GPGSA,A,2,26,07,06,,,,,,,,,,13.4,13.4,1.0*37\r
275 $GPGSV,3,1,11,26,55,180,28,06,46,258,33,07,43,272,30,21,22,304,*77\r
276 $GPGSV,3,2,11,24,83,061,,29,64,170,,10,45,056,,02,23,121,*7F\r
277 $GPGSV,3,3,11,08,17,067,,27,10,041,,18,05,257,*4B\r
278 $GPRMC,213916.199,A,4221.0377,N,07102.9778,W,0.00,,010207,,,A*6A\r
279 $GPGGA,213917.199,4221.0510,N,07102.9549,W,1,04,3.9,-65.2,M,-33.7,M,,0000*7C\r
280 $GPGSA,A,3,26,07,06,21,,,,,,,,,4.1,3.9,1.0*3A\r
281 $GPRMC,213917.199,A,4221.0510,N,07102.9549,W,0.23,175.43,010207,,,A*77\r
282 $GPGGA,213918.199,4221.0853,N,07102.9382,W,1,04,3.9,50.0,M,-33.7,M,,0000*51\r
283 $GPGSA,A,3,26,07,06,21,,,,,,,,,4.1,3.9,1.0*3A\r
284 $GPRMC,213918.199,A,4221.0853,N,07102.9382,W,0.95,326.55,010207,,,A*7D\r
285 $GPGGA,213919.000,4221.0975,N,07102.9300,W,1,04,3.9,86.2,M,-33.7,M,,0000*57\r
286 $GPGSA,A,3,26,07,06,21,,,,,,,,,4.1,3.9,1.0*3A\r
287 $GPRMC,213919.000,A,4221.0975,N,07102.9300,W,0.55,332.53,010207,,,A*7D\r
288 $GPGGA,213920.000,4221.1129,N,07102.9146,W,1,04,3.9,129.7,M,-33.7,M,,0000*6C\r
289 $GPGSA,A,3,26,07,06,21,,,,,,,,,4.1,3.9,1.0*3A\r
290 $GPRMC,213920.000,A,4221.1129,N,07102.9146,W,0.00,,010207,,,A*6D\r
291 $GPGGA,213921.000,4221.1129,N,07102.9146,W,1,04,3.9,129.7,M,-33.7,M,,0000*6D\r
292 $GPGSA,A,3,26,07,06,21,,,,,,,,,4.1,3.9,1.0*3A\r
293 $GPGSV,3,1,11,26,55,180,29,06,46,258,26,07,43,272,33,21,22,304,26*75\r
294 $GPGSV,3,2,11,24,83,061,,29,64,170,,10,45,056,,02,23,121,*7F\r
295 $GPGSV,3,3,11,08,17,067,28,27,10,041,,18,05,257,*41\r
296 $GPRMC,213921.000,A,4221.1129,N,07102.9146,W,0.00,,010207,,,A*6C\r
297 $GPGGA,213922.000,4221.1129,N,07102.9146,W,1,04,3.9,129.7,M,-33.7,M,,0000*6E\r
298 $GPGSA,A,3,26,07,06,21,,,,,,,,,4.1,3.9,1.0*3A\r
299 $GPRMC,213922.000,A,4221.1129,N,07102.9146,W,0.00,,010207,,,A*6F\r
300 $GPGGA,213923.000,4221.1129,N,07102.9146,W,1,04,3.9,129.7,M,-33.7,M,,0000*6F\r
301 $GPGSA,A,3,26,07,06,21,,,,,,,,,4.1,3.9,1.0*3A\r
302 $GPRMC,213923.000,A,4221.1129,N,07102.9146,W,0.00,,010207,,,A*6E\r
303 $GPGGA,213924.000,4221.1129,N,07102.9146,W,1,04,3.9,129.7,M,-33.7,M,,0000*68\r
304 $GPGSA,A,3,26,07,06,21,,,,,,,,,4.0,3.9,1.0*3B\r
305 $GPRMC,213924.000,A,4221.1129,N,07102.9146,W,0.00,,010207,,,A*69\r
306 $GPGGA,213925.000,4221.1129,N,07102.9146,W,1,04,3.9,129.7,M,-33.7,M,,0000*69\r
307 $GPGSA,A,3,26,07,06,21,,,,,,,,,4.0,3.9,1.0*3B\r
308 $GPRMC,213925.000,A,4221.1129,N,07102.9146,W,0.00,,010207,,,A*68\r
309 $GPGGA,213926.000,4221.1112,N,07102.9177,W,1,04,3.9,136.5,M,-33.7,M,,0000*6C\r
310 \r
311 \r